sensor_id;sensor_type;location;lat;lon;timestamp;temperature;humidity
78325;DHT22;67584;51.400;6.692;2023-04-01T00:00:51;9.40;90.80
78325;DHT22;67584;51.400;6.692;2023-04-01T00:03:18;9.40;90.90
78325;DHT22;67584;51.400;6.692;2023-04-01T00:05:44;9.40;90.70
78325;DHT22;67584;51.400;6.692;2023-04-01T00:08:10;9.40;91.00
78325;DHT22;67584;51.400;6.692;2023-04-01T00:10:36;9.50;90.60
78325;DHT22;67584;51.400;6.692;2023-04-01T00:13:02;9.50;91.20
78325;DHT22;67584;51.400;6.692;2023-04-01T00:15:28;9.40;91.40
78325;DHT22;67584;51.400;6.692;2023-04-01T00:17:54;9.40;91.30
78325;DHT22;67584;51.400;6.692;2023-04-01T00:20:20;9.40;91.10
78325;DHT22;67584;51.400;6.692;2023-04-01T00:22:46;9.40;91.20
78325;DHT22;67584;51.400;6.692;2023-04-01T00:25:12;9.40;91.20
78325;DHT22;67584;51.400;6.692;2023-04-01T00:27:37;9.30;91.30
78325;DHT22;67584;51.400;6.692;2023-04-01T00:30:04;9.30;91.60
78325;DHT22;67584;51.400;6.692;2023-04-01T00:32:29;9.30;91.80
78325;DHT22;67584;51.400;6.692;2023-04-01T00:34:56;9.20;91.90
78325;DHT22;67584;51.400;6.692;2023-04-01T00:37:24;9.20;92.00
78325;DHT22;67584;51.400;6.692;2023-04-01T00:39:49;9.30;92.10
78325;DHT22;67584;51.400;6.692;2023-04-01T00:42:15;9.10;91.90
78325;DHT22;67584;51.400;6.692;2023-04-01T00:44:41;9.20;92.00
78325;DHT22;67584;51.400;6.692;2023-04-01T00:47:07;9.20;91.90
78325;DHT22;67584;51.400;6.692;2023-04-01T00:49:39;9.20;91.90
78325;DHT22;67584;51.400;6.692;2023-04-01T00:52:07;9.20;92.00
78325;DHT22;67584;51.400;6.692;2023-04-01T00:54:34;9.20;91.80
78325;DHT22;67584;51.400;6.692;2023-04-01T00:57:05;9.20;91.80
78325;DHT22;67584;51.400;6.692;2023-04-01T00:59:35;9.20;91.30
78325;DHT22;67584;51.400;6.692;2023-04-01T01:02:04;9.20;91.00
78325;DHT22;67584;51.400;6.692;2023-04-01T01:04:33;9.30;91.50
78325;DHT22;67584;51.400;6.692;2023-04-01T01:12:14;9.30;91.00
78325;DHT22;67584;51.400;6.692;2023-04-01T01:16:00;9.30;90.80
78325;DHT22;67584;51.400;6.692;2023-04-01T01:26:44;9.30;90.90
78325;DHT22;67584;51.400;6.692;2023-04-01T01:32:30;9.30;90.40
78325;DHT22;67584;51.400;6.692;2023-04-01T01:37:44;9.30;90.40
78325;DHT22;67584;51.400;6.692;2023-04-01T01:40:13;9.30;90.10
78325;DHT22;67584;51.400;6.692;2023-04-01T01:42:46;9.20;89.90
78325;DHT22;67584;51.400;6.692;2023-04-01T01:45:14;9.40;90.00
78325;DHT22;67584;51.400;6.692;2023-04-01T01:47:43;9.30;89.60
78325;DHT22;67584;51.400;6.692;2023-04-01T01:50:12;9.30;89.80
78325;DHT22;67584;51.400;6.692;2023-04-01T01:52:39;9.30;89.40
78325;DHT22;67584;51.400;6.692;2023-04-01T01:55:30;9.40;89.70
78325;DHT22;67584;51.400;6.692;2023-04-01T01:58:00;9.30;90.10
78325;DHT22;67584;51.400;6.692;2023-04-01T02:00:28;9.30;90.40
78325;DHT22;67584;51.400;6.692;2023-04-01T02:02:54;9.30;90.50
78325;DHT22;67584;51.400;6.692;2023-04-01T02:05:23;9.10;91.00
78325;DHT22;67584;51.400;6.692;2023-04-01T02:08:16;9.30;90.80
78325;DHT22;67584;51.400;6.692;2023-04-01T02:10:56;9.20;91.20
78325;DHT22;67584;51.400;6.692;2023-04-01T02:13:48;9.20;91.20
78325;DHT22;67584;51.400;6.692;2023-04-01T02:16:20;9.30;91.40
78325;DHT22;67584;51.400;6.692;2023-04-01T02:18:50;9.20;91.10
78325;DHT22;67584;51.400;6.692;2023-04-01T02:21:18;9.30;91.10
78325;DHT22;67584;51.400;6.692;2023-04-01T02:23:46;9.20;91.90
78325;DHT22;67584;51.400;6.692;2023-04-01T02:26:13;9.20;92.00
78325;DHT22;67584;51.400;6.692;2023-04-01T02:28:40;9.20;92.20
78325;DHT22;67584;51.400;6.692;2023-04-01T02:31:09;9.10;92.20
78325;DHT22;67584;51.400;6.692;2023-04-01T02:33:37;9.00;92.20
78325;DHT22;67584;51.400;6.692;2023-04-01T02:36:04;9.00;92.20
78325;DHT22;67584;51.400;6.692;2023-04-01T02:38:31;9.00;92.20
78325;DHT22;67584;51.400;6.692;2023-04-01T02:40:59;8.90;92.20
78325;DHT22;67584;51.400;6.692;2023-04-01T02:43:26;8.90;92.20
78325;DHT22;67584;51.400;6.692;2023-04-01T02:45:52;9.00;92.20
78325;DHT22;67584;51.400;6.692;2023-04-01T02:48:18;9.00;92.20
78325;DHT22;67584;51.400;6.692;2023-04-01T02:50:43;8.90;92.20
78325;DHT22;67584;51.400;6.692;2023-04-01T02:53:09;8.90;92.20
78325;DHT22;67584;51.400;6.692;2023-04-01T02:55:35;8.90;92.20
78325;DHT22;67584;51.400;6.692;2023-04-01T02:58:01;8.90;92.20
78325;DHT22;67584;51.400;6.692;2023-04-01T03:00:28;8.90;92.20
78325;DHT22;67584;51.400;6.692;2023-04-01T03:02:54;9.00;92.20
78325;DHT22;67584;51.400;6.692;2023-04-01T03:05:20;9.00;92.20
78325;DHT22;67584;51.400;6.692;2023-04-01T03:07:46;9.00;92.20
78325;DHT22;67584;51.400;6.692;2023-04-01T03:10:12;8.90;92.20
78325;DHT22;67584;51.400;6.692;2023-04-01T03:12:38;9.00;92.20
78325;DHT22;67584;51.400;6.692;2023-04-01T03:15:04;9.00;92.20
78325;DHT22;67584;51.400;6.692;2023-04-01T03:17:30;9.00;92.20
78325;DHT22;67584;51.400;6.692;2023-04-01T03:19:56;9.10;92.20
78325;DHT22;67584;51.400;6.692;2023-04-01T03:22:21;9.00;92.20
78325;DHT22;67584;51.400;6.692;2023-04-01T03:24:48;9.00;92.20
78325;DHT22;67584;51.400;6.692;2023-04-01T03:27:14;9.00;92.20
78325;DHT22;67584;51.400;6.692;2023-04-01T03:29:40;9.10;92.20
78325;DHT22;67584;51.400;6.692;2023-04-01T03:32:07;9.10;92.20
78325;DHT22;67584;51.400;6.692;2023-04-01T03:34:33;9.10;92.20
78325;DHT22;67584;51.400;6.692;2023-04-01T03:36:58;9.10;92.20
78325;DHT22;67584;51.400;6.692;2023-04-01T03:39:24;9.00;92.20
78325;DHT22;67584;51.400;6.692;2023-04-01T03:41:51;9.10;92.20
78325;DHT22;67584;51.400;6.692;2023-04-01T03:44:16;9.10;92.20
78325;DHT22;67584;51.400;6.692;2023-04-01T03:46:44;9.00;92.20
78325;DHT22;67584;51.400;6.692;2023-04-01T03:49:10;9.10;92.20
78325;DHT22;67584;51.400;6.692;2023-04-01T03:51:43;9.00;92.20
78325;DHT22;67584;51.400;6.692;2023-04-01T03:54:10;9.10;92.20
78325;DHT22;67584;51.400;6.692;2023-04-01T03:56:37;9.10;92.20
78325;DHT22;67584;51.400;6.692;2023-04-01T03:59:05;9.20;92.20
78325;DHT22;67584;51.400;6.692;2023-04-01T04:01:31;9.10;92.20
78325;DHT22;67584;51.400;6.692;2023-04-01T04:03:57;9.10;92.20
78325;DHT22;67584;51.400;6.692;2023-04-01T04:06:24;9.20;92.20
78325;DHT22;67584;51.400;6.692;2023-04-01T04:08:51;9.10;92.20
78325;DHT22;67584;51.400;6.692;2023-04-01T04:11:19;9.10;92.20
78325;DHT22;67584;51.400;6.692;2023-04-01T04:13:46;9.10;92.20
78325;DHT22;67584;51.400;6.692;2023-04-01T04:16:15;9.20;92.20
78325;DHT22;67584;51.400;6.692;2023-04-01T04:18:45;9.20;92.20
78325;DHT22;67584;51.400;6.692;2023-04-01T04:21:13;9.10;92.20
78325;DHT22;67584;51.400;6.692;2023-04-01T04:23:40;9.10;92.20
78325;DHT22;67584;51.400;6.692;2023-04-01T04:26:09;9.10;92.20
78325;DHT22;67584;51.400;6.692;2023-04-01T04:28:35;9.10;92.20
78325;DHT22;67584;51.400;6.692;2023-04-01T04:31:02;9.10;92.20
78325;DHT22;67584;51.400;6.692;2023-04-01T04:33:28;9.10;92.20
78325;DHT22;67584;51.400;6.692;2023-04-01T04:35:58;9.00;92.20
78325;DHT22;67584;51.400;6.692;2023-04-01T04:38:24;9.00;92.20
78325;DHT22;67584;51.400;6.692;2023-04-01T04:40:50;9.10;92.20
78325;DHT22;67584;51.400;6.692;2023-04-01T04:43:17;9.00;92.20
78325;DHT22;67584;51.400;6.692;2023-04-01T04:45:43;9.00;92.20
78325;DHT22;67584;51.400;6.692;2023-04-01T04:48:11;9.00;92.20
78325;DHT22;67584;51.400;6.692;2023-04-01T04:50:42;9.00;92.20
78325;DHT22;67584;51.400;6.692;2023-04-01T04:53:15;9.10;92.20
78325;DHT22;67584;51.400;6.692;2023-04-01T04:55:45;9.00;92.20
78325;DHT22;67584;51.400;6.692;2023-04-01T04:58:44;9.10;92.20
78325;DHT22;67584;51.400;6.692;2023-04-01T05:01:16;9.10;92.20
78325;DHT22;67584;51.400;6.692;2023-04-01T05:03:42;9.10;92.20
78325;DHT22;67584;51.400;6.692;2023-04-01T05:06:11;9.10;92.20
78325;DHT22;67584;51.400;6.692;2023-04-01T05:08:37;9.10;92.20
78325;DHT22;67584;51.400;6.692;2023-04-01T05:11:07;9.10;92.20
78325;DHT22;67584;51.400;6.692;2023-04-01T05:13:36;9.00;92.20
78325;DHT22;67584;51.400;6.692;2023-04-01T05:16:01;9.00;92.20
78325;DHT22;67584;51.400;6.692;2023-04-01T05:18:27;9.10;92.20
78325;DHT22;67584;51.400;6.692;2023-04-01T05:20:54;9.00;92.20
78325;DHT22;67584;51.400;6.692;2023-04-01T05:23:21;9.00;92.20
78325;DHT22;67584;51.400;6.692;2023-04-01T05:25:50;9.00;92.20
78325;DHT22;67584;51.400;6.692;2023-04-01T05:28:20;9.00;92.20
78325;DHT22;67584;51.400;6.692;2023-04-01T05:30:46;9.00;92.20
78325;DHT22;67584;51.400;6.692;2023-04-01T05:33:28;9.00;92.20
78325;DHT22;67584;51.400;6.692;2023-04-01T05:35:54;9.00;92.20
78325;DHT22;67584;51.400;6.692;2023-04-01T05:38:20;9.10;92.20
78325;DHT22;67584;51.400;6.692;2023-04-01T05:40:46;9.00;92.20
78325;DHT22;67584;51.400;6.692;2023-04-01T05:43:11;9.10;92.20
78325;DHT22;67584;51.400;6.692;2023-04-01T05:45:38;9.00;92.20
78325;DHT22;67584;51.400;6.692;2023-04-01T05:48:28;9.00;92.20
78325;DHT22;67584;51.400;6.692;2023-04-01T05:50:54;9.00;92.20
78325;DHT22;67584;51.400;6.692;2023-04-01T05:53:20;9.00;92.20
78325;DHT22;67584;51.400;6.692;2023-04-01T05:55:46;9.00;92.20
78325;DHT22;67584;51.400;6.692;2023-04-01T05:58:13;8.90;92.20
78325;DHT22;67584;51.400;6.692;2023-04-01T06:00:42;9.00;92.20
78325;DHT22;67584;51.400;6.692;2023-04-01T06:03:07;8.90;92.20
78325;DHT22;67584;51.400;6.692;2023-04-01T06:05:41;9.00;92.20
78325;DHT22;67584;51.400;6.692;2023-04-01T06:08:16;9.00;92.20
78325;DHT22;67584;51.400;6.692;2023-04-01T06:10:58;9.00;92.20
78325;DHT22;67584;51.400;6.692;2023-04-01T06:16:00;9.00;92.20
78325;DHT22;67584;51.400;6.692;2023-04-01T06:32:37;9.00;92.20
78325;DHT22;67584;51.400;6.692;2023-04-01T06:51:06;9.00;92.20
78325;DHT22;67584;51.400;6.692;2023-04-01T06:54:16;9.00;92.20
78325;DHT22;67584;51.400;6.692;2023-04-01T06:58:02;9.00;92.20
78325;DHT22;67584;51.400;6.692;2023-04-01T07:00:11;9.00;92.20
78325;DHT22;67584;51.400;6.692;2023-04-01T07:02:49;9.10;92.20
78325;DHT22;67584;51.400;6.692;2023-04-01T07:05:22;9.10;92.20
78325;DHT22;67584;51.400;6.692;2023-04-01T07:07:51;9.10;92.20
78325;DHT22;67584;51.400;6.692;2023-04-01T07:10:55;9.10;92.20
78325;DHT22;67584;51.400;6.692;2023-04-01T07:16:46;9.00;92.20
78325;DHT22;67584;51.400;6.692;2023-04-01T07:19:26;9.10;92.20
78325;DHT22;67584;51.400;6.692;2023-04-01T07:22:39;9.10;92.20
78325;DHT22;67584;51.400;6.692;2023-04-01T07:25:29;9.10;92.20
78325;DHT22;67584;51.400;6.692;2023-04-01T07:28:30;9.10;92.20
78325;DHT22;67584;51.400;6.692;2023-04-01T07:33:50;9.10;92.20
78325;DHT22;67584;51.400;6.692;2023-04-01T07:36:23;9.10;92.20
78325;DHT22;67584;51.400;6.692;2023-04-01T07:47:34;9.00;92.20
78325;DHT22;67584;51.400;6.692;2023-04-01T07:50:25;9.20;92.20
78325;DHT22;67584;51.400;6.692;2023-04-01T07:53:01;9.10;92.20
78325;DHT22;67584;51.400;6.692;2023-04-01T07:58:14;9.20;92.20
78325;DHT22;67584;51.400;6.692;2023-04-01T08:03:55;9.20;92.20
78325;DHT22;67584;51.400;6.692;2023-04-01T08:06:31;9.30;92.20
78325;DHT22;67584;51.400;6.692;2023-04-01T08:15:14;9.60;92.20
78325;DHT22;67584;51.400;6.692;2023-04-01T08:20:51;9.30;92.20
78325;DHT22;67584;51.400;6.692;2023-04-01T08:23:32;9.40;92.20
78325;DHT22;67584;51.400;6.692;2023-04-01T08:26:30;9.40;92.20
78325;DHT22;67584;51.400;6.692;2023-04-01T08:29:06;9.40;92.20
78325;DHT22;67584;51.400;6.692;2023-04-01T08:34:25;9.30;92.20
78325;DHT22;67584;51.400;6.692;2023-04-01T08:37:03;9.40;92.20
78325;DHT22;67584;51.400;6.692;2023-04-01T08:39:37;9.40;92.20
78325;DHT22;67584;51.400;6.692;2023-04-01T08:45:00;9.60;92.20
78325;DHT22;67584;51.400;6.692;2023-04-01T09:04:58;9.60;92.20
78325;DHT22;67584;51.400;6.692;2023-04-01T09:07:34;9.60;92.20
78325;DHT22;67584;51.400;6.692;2023-04-01T09:23:41;9.80;92.20
78325;DHT22;67584;51.400;6.692;2023-04-01T09:32:11;9.90;92.20
78325;DHT22;67584;51.400;6.692;2023-04-01T09:35:39;9.90;92.20
78325;DHT22;67584;51.400;6.692;2023-04-01T09:40:55;9.90;92.20
78325;DHT22;67584;51.400;6.692;2023-04-01T09:44:03;9.80;92.20
78325;DHT22;67584;51.400;6.692;2023-04-01T09:52:47;9.60;92.20
78325;DHT22;67584;51.400;6.692;2023-04-01T10:01:27;9.90;92.20
78325;DHT22;67584;51.400;6.692;2023-04-01T10:18:58;9.80;92.20
78325;DHT22;67584;51.400;6.692;2023-04-01T10:21:51;9.80;92.20
78325;DHT22;67584;51.400;6.692;2023-04-01T10:36:22;10.00;92.20
78325;DHT22;67584;51.400;6.692;2023-04-01T10:42:13;10.00;92.20
78325;DHT22;67584;51.400;6.692;2023-04-01T10:56:59;10.00;92.20
78325;DHT22;67584;51.400;6.692;2023-04-01T11:06:30;9.90;92.20
78325;DHT22;67584;51.400;6.692;2023-04-01T11:09:19;10.00;92.20
78325;DHT22;67584;51.400;6.692;2023-04-01T11:21:30;10.50;92.20
78325;DHT22;67584;51.400;6.692;2023-04-01T11:27:25;10.30;92.20
78325;DHT22;67584;51.400;6.692;2023-04-01T11:30:28;10.10;92.20
78325;DHT22;67584;51.400;6.692;2023-04-01T12:04:45;10.20;92.20
78325;DHT22;67584;51.400;6.692;2023-04-01T12:07:49;10.20;92.20
78325;DHT22;67584;51.400;6.692;2023-04-01T12:10:20;10.20;92.20
78325;DHT22;67584;51.400;6.692;2023-04-01T12:38:31;10.70;92.00
78325;DHT22;67584;51.400;6.692;2023-04-01T12:41:09;10.70;92.20
78325;DHT22;67584;51.400;6.692;2023-04-01T12:57:24;10.40;92.20
78325;DHT22;67584;51.400;6.692;2023-04-01T13:16:37;10.20;92.20
78325;DHT22;67584;51.400;6.692;2023-04-01T13:27:11;10.10;92.20
78325;DHT22;67584;51.400;6.692;2023-04-01T13:35:35;10.20;92.20
78325;DHT22;67584;51.400;6.692;2023-04-01T13:38:09;10.20;92.20
78325;DHT22;67584;51.400;6.692;2023-04-01T13:43:49;10.10;92.20
78325;DHT22;67584;51.400;6.692;2023-04-01T13:46:32;10.20;92.20
78325;DHT22;67584;51.400;6.692;2023-04-01T14:01:05;10.00;92.20
78325;DHT22;67584;51.400;6.692;2023-04-01T14:09:19;10.10;92.20
78325;DHT22;67584;51.400;6.692;2023-04-01T14:20:27;10.20;92.20
78325;DHT22;67584;51.400;6.692;2023-04-01T14:31:44;10.10;92.20
78325;DHT22;67584;51.400;6.692;2023-04-01T14:40:26;10.20;92.20
78325;DHT22;67584;51.400;6.692;2023-04-01T14:49:20;10.20;92.20
78325;DHT22;67584;51.400;6.692;2023-04-01T14:51:48;10.10;92.20
78325;DHT22;67584;51.400;6.692;2023-04-01T14:54:20;10.10;92.20
78325;DHT22;67584;51.400;6.692;2023-04-01T14:59:40;10.10;92.20
78325;DHT22;67584;51.400;6.692;2023-04-01T15:02:43;10.10;92.20
78325;DHT22;67584;51.400;6.692;2023-04-01T15:05:39;10.10;92.20
78325;DHT22;67584;51.400;6.692;2023-04-01T15:08:15;10.10;92.20
78325;DHT22;67584;51.400;6.692;2023-04-01T15:11:05;10.00;92.20
78325;DHT22;67584;51.400;6.692;2023-04-01T15:13:48;9.90;92.20
78325;DHT22;67584;51.400;6.692;2023-04-01T15:22:05;10.00;92.20
78325;DHT22;67584;51.400;6.692;2023-04-01T15:25:00;10.00;92.20
78325;DHT22;67584;51.400;6.692;2023-04-01T15:30:28;9.90;92.20
78325;DHT22;67584;51.400;6.692;2023-04-01T15:38:56;9.90;92.20
78325;DHT22;67584;51.400;6.692;2023-04-01T15:47:01;9.90;92.20
78325;DHT22;67584;51.400;6.692;2023-04-01T15:49:41;10.00;92.20
78325;DHT22;67584;51.400;6.692;2023-04-01T15:55:15;10.00;92.20
78325;DHT22;67584;51.400;6.692;2023-04-01T16:00:53;10.10;92.20
78325;DHT22;67584;51.400;6.692;2023-04-01T16:08:59;10.20;92.20
78325;DHT22;67584;51.400;6.692;2023-04-01T16:11:40;10.30;92.20
78325;DHT22;67584;51.400;6.692;2023-04-01T16:17:20;10.30;92.20
78325;DHT22;67584;51.400;6.692;2023-04-01T16:23:35;10.30;92.20
78325;DHT22;67584;51.400;6.692;2023-04-01T16:26:26;10.30;92.20
78325;DHT22;67584;51.400;6.692;2023-04-01T16:34:20;10.20;92.20
78325;DHT22;67584;51.400;6.692;2023-04-01T16:36:53;10.10;92.20
78325;DHT22;67584;51.400;6.692;2023-04-01T16:39:27;10.00;92.20
78325;DHT22;67584;51.400;6.692;2023-04-01T16:47:48;10.00;92.20
78325;DHT22;67584;51.400;6.692;2023-04-01T16:50:20;10.00;92.20
78325;DHT22;67584;51.400;6.692;2023-04-01T16:56:02;9.90;92.20
78325;DHT22;67584;51.400;6.692;2023-04-01T16:58:36;9.90;92.20
78325;DHT22;67584;51.400;6.692;2023-04-01T17:01:29;9.90;92.20
78325;DHT22;67584;51.400;6.692;2023-04-01T17:13:14;9.90;92.20
78325;DHT22;67584;51.400;6.692;2023-04-01T17:19:05;9.90;92.20
78325;DHT22;67584;51.400;6.692;2023-04-01T17:30:33;9.70;92.20
78325;DHT22;67584;51.400;6.692;2023-04-01T17:35:58;9.80;92.20
78325;DHT22;67584;51.400;6.692;2023-04-01T17:38:46;9.70;92.20
78325;DHT22;67584;51.400;6.692;2023-04-01T17:41:51;9.80;92.20
78325;DHT22;67584;51.400;6.692;2023-04-01T17:49:37;9.70;92.20
78325;DHT22;67584;51.400;6.692;2023-04-01T17:52:35;9.70;92.20
78325;DHT22;67584;51.400;6.692;2023-04-01T18:03:51;9.70;92.20
78325;DHT22;67584;51.400;6.692;2023-04-01T18:14:07;9.70;92.20
78325;DHT22;67584;51.400;6.692;2023-04-01T18:16:58;9.70;92.20
78325;DHT22;67584;51.400;6.692;2023-04-01T18:20:02;9.60;92.20
78325;DHT22;67584;51.400;6.692;2023-04-01T18:23:03;9.60;92.20
78325;DHT22;67584;51.400;6.692;2023-04-01T18:25:40;9.60;92.20
78325;DHT22;67584;51.400;6.692;2023-04-01T18:28:36;9.60;92.20
78325;DHT22;67584;51.400;6.692;2023-04-01T18:31:08;9.60;92.20
78325;DHT22;67584;51.400;6.692;2023-04-01T18:33:59;9.70;92.20
78325;DHT22;67584;51.400;6.692;2023-04-01T18:36:47;9.60;92.20
78325;DHT22;67584;51.400;6.692;2023-04-01T18:41:49;9.60;92.20
78325;DHT22;67584;51.400;6.692;2023-04-01T18:52:44;9.60;92.20
78325;DHT22;67584;51.400;6.692;2023-04-01T18:55:29;9.60;92.20
78325;DHT22;67584;51.400;6.692;2023-04-01T19:06:49;9.60;92.20
78325;DHT22;67584;51.400;6.692;2023-04-01T19:09:44;9.60;92.20
78325;DHT22;67584;51.400;6.692;2023-04-01T19:20:57;9.60;92.20
78325;DHT22;67584;51.400;6.692;2023-04-01T19:26:14;9.60;92.20
78325;DHT22;67584;51.400;6.692;2023-04-01T19:31:30;9.70;92.20
78325;DHT22;67584;51.400;6.692;2023-04-01T19:36:54;9.70;92.20
78325;DHT22;67584;51.400;6.692;2023-04-01T19:45:34;9.70;92.20
78325;DHT22;67584;51.400;6.692;2023-04-01T19:51:13;9.70;92.20
78325;DHT22;67584;51.400;6.692;2023-04-01T19:59:37;9.60;92.20
78325;DHT22;67584;51.400;6.692;2023-04-01T20:08:19;9.60;92.20
78325;DHT22;67584;51.400;6.692;2023-04-01T20:16:12;9.40;92.20
78325;DHT22;67584;51.400;6.692;2023-04-01T20:18:56;9.30;92.20
78325;DHT22;67584;51.400;6.692;2023-04-01T20:21:30;9.40;92.20
78325;DHT22;67584;51.400;6.692;2023-04-01T20:26:42;9.30;92.20
78325;DHT22;67584;51.400;6.692;2023-04-01T20:29:18;9.20;92.20
78325;DHT22;67584;51.400;6.692;2023-04-01T20:32:15;9.10;92.20
78325;DHT22;67584;51.400;6.692;2023-04-01T20:34:48;9.10;92.20
78325;DHT22;67584;51.400;6.692;2023-04-01T20:40:44;9.20;92.20
78325;DHT22;67584;51.400;6.692;2023-04-01T20:43:35;9.20;92.20
78325;DHT22;67584;51.400;6.692;2023-04-01T20:46:58;9.10;92.20
78325;DHT22;67584;51.400;6.692;2023-04-01T20:49:32;9.00;92.20
78325;DHT22;67584;51.400;6.692;2023-04-01T21:00:20;8.90;92.20
78325;DHT22;67584;51.400;6.692;2023-04-01T21:03:00;8.80;92.20
78325;DHT22;67584;51.400;6.692;2023-04-01T21:08:51;8.70;92.20
78325;DHT22;67584;51.400;6.692;2023-04-01T21:16:35;8.70;92.20
78325;DHT22;67584;51.400;6.692;2023-04-01T21:23:05;8.50;92.20
78325;DHT22;67584;51.400;6.692;2023-04-01T21:28:12;8.40;92.20
78325;DHT22;67584;51.400;6.692;2023-04-01T21:37:22;8.40;92.20
78325;DHT22;67584;51.400;6.692;2023-04-01T21:42:18;8.40;92.20
78325;DHT22;67584;51.400;6.692;2023-04-01T21:56:57;8.10;92.20
78325;DHT22;67584;51.400;6.692;2023-04-01T22:02:20;8.00;92.20
78325;DHT22;67584;51.400;6.692;2023-04-01T22:05:02;8.10;92.20
78325;DHT22;67584;51.400;6.692;2023-04-01T22:15:48;8.00;92.20
78325;DHT22;67584;51.400;6.692;2023-04-01T22:18:37;8.00;92.20
78325;DHT22;67584;51.400;6.692;2023-04-01T22:21:21;8.00;92.20
78325;DHT22;67584;51.400;6.692;2023-04-01T22:24:01;7.90;92.20
78325;DHT22;67584;51.400;6.692;2023-04-01T22:29:59;7.90;92.20
78325;DHT22;67584;51.400;6.692;2023-04-01T22:32:30;7.80;92.20
78325;DHT22;67584;51.400;6.692;2023-04-01T22:35:08;7.80;92.20
78325;DHT22;67584;51.400;6.692;2023-04-01T22:37:58;7.60;92.20
78325;DHT22;67584;51.400;6.692;2023-04-01T22:46:05;7.60;92.20
78325;DHT22;67584;51.400;6.692;2023-04-01T22:48:46;7.40;92.20
78325;DHT22;67584;51.400;6.692;2023-04-01T22:54:13;7.30;92.20
78325;DHT22;67584;51.400;6.692;2023-04-01T22:56:46;7.40;92.20
78325;DHT22;67584;51.400;6.692;2023-04-01T23:01:53;7.40;92.20
78325;DHT22;67584;51.400;6.692;2023-04-01T23:04:24;7.20;92.20
78325;DHT22;67584;51.400;6.692;2023-04-01T23:06:58;7.50;92.20
78325;DHT22;67584;51.400;6.692;2023-04-01T23:09:27;7.50;92.20
78325;DHT22;67584;51.400;6.692;2023-04-01T23:12:12;7.40;92.20
78325;DHT22;67584;51.400;6.692;2023-04-01T23:15:00;7.40;92.20
78325;DHT22;67584;51.400;6.692;2023-04-01T23:17:47;7.40;92.20
78325;DHT22;67584;51.400;6.692;2023-04-01T23:20:25;7.40;92.20
78325;DHT22;67584;51.400;6.692;2023-04-01T23:26:02;7.10;92.20
78325;DHT22;67584;51.400;6.692;2023-04-01T23:31:32;7.20;92.20
78325;DHT22;67584;51.400;6.692;2023-04-01T23:34:25;7.20;92.20
78325;DHT22;67584;51.400;6.692;2023-04-01T23:36:55;7.10;92.20
78325;DHT22;67584;51.400;6.692;2023-04-01T23:39:42;7.10;92.20
78325;DHT22;67584;51.400;6.692;2023-04-01T23:44:41;6.90;92.20
78325;DHT22;67584;51.400;6.692;2023-04-01T23:47:14;7.00;92.20
78325;DHT22;67584;51.400;6.692;2023-04-01T23:50:26;6.80;92.20
78325;DHT22;67584;51.400;6.692;2023-04-01T23:52:40;6.70;92.20
78325;DHT22;67584;51.400;6.692;2023-04-01T23:57:36;6.80;92.20
